Time;durP1;ratioP1;P1;durP2;ratioP2;P2;SDS_P1;SDS_P2;PMS_P1;PMS_P2;Temp;Humidity;BMP_temperature;BMP_pressure;BME280_temperature;BME280_humidity;BME280_pressure;Samples;Min_cycle;Max_cycle;Signal;HPM_P1;HPM_P2
2022/01/31 00:01:03;;;;;;;12.57;3.15;;;15.40;44.00;14.50;101068.00;;;;5059577;28;20033;-70
2022/01/31 00:03:49;;;;;;;14.38;3.78;;;15.40;43.80;14.50;101039.00;;;;5059108;28;20064;-70
2022/01/31 00:06:35;;;;;;;13.95;2.92;;;15.40;44.00;14.50;101058.00;;;;5061906;28;20045;-70
2022/01/31 00:09:23;;;;;;;9.70;2.90;;;15.40;44.00;14.50;101048.00;;;;5060598;28;20033;-70
2022/01/31 00:12:12;;;;;;;9.15;2.90;;;15.40;44.00;14.50;101046.00;;;;5067755;28;20036;-70
2022/01/31 00:15:02;;;;;;;12.35;2.80;;;15.40;44.00;14.50;101027.00;;;;5058214;28;20493;-70
2022/01/31 00:18:04;;;;;;;7.97;2.67;;;15.40;44.10;14.50;101005.00;;;;5058222;28;20043;-70
2022/01/31 00:20:50;;;;;;;12.63;3.13;;;15.40;44.00;14.50;100999.00;;;;5047816;28;20089;-70
2022/01/31 00:23:36;;;;;;;9.25;2.60;;;15.40;43.90;14.50;100990.00;;;;5033284;28;20091;-70
2022/01/31 00:26:23;;;;;;;11.07;2.88;;;15.40;44.00;14.50;100980.00;;;;5063617;28;20064;-70
2022/01/31 00:29:09;;;;;;;11.85;2.70;;;15.40;44.20;14.50;100973.00;;;;5061558;28;20397;-70
2022/01/31 00:31:55;;;;;;;9.98;2.47;;;15.40;44.20;14.50;100964.00;;;;5059527;28;20371;-70
2022/01/31 00:34:41;;;;;;;12.90;3.15;;;15.40;44.00;14.50;100950.00;;;;5062693;28;20048;-70
2022/01/31 00:37:27;;;;;;;10.57;2.90;;;15.40;43.90;14.50;100942.00;;;;5060606;28;20402;-70
2022/01/31 00:40:13;;;;;;;12.30;3.17;;;15.40;43.80;14.40;100923.00;;;;5062994;28;20048;-70
2022/01/31 00:43:00;;;;;;;9.13;2.45;;;15.30;44.00;14.40;100924.00;;;;5057321;28;20064;-70
2022/01/31 00:46:00;;;;;;;13.75;2.97;;;15.40;44.00;14.40;100926.00;;;;5059829;28;20438;-71
2022/01/31 00:48:47;;;;;;;8.85;2.97;;;15.40;43.80;14.40;100910.00;;;;5050580;28;20107;-70
2022/01/31 00:51:33;;;;;;;13.67;2.93;;;15.30;43.70;14.40;100895.00;;;;5056757;28;20545;-70
2022/01/31 00:54:19;;;;;;;10.18;3.15;;;15.30;44.60;14.40;100881.00;;;;5059476;28;20283;-70
2022/01/31 00:57:05;;;;;;;8.02;2.50;;;15.30;43.90;14.40;100869.00;;;;5045841;28;20478;-70
2022/01/31 00:59:52;;;;;;;8.40;2.22;;;15.30;43.90;14.40;100852.00;;;;5056812;28;20040;-70
2022/01/31 01:02:38;;;;;;;10.07;2.72;;;15.30;44.00;14.40;100844.00;;;;5065697;28;20430;-70
2022/01/31 01:05:24;;;;;;;8.50;2.20;;;15.30;44.10;14.40;100830.00;;;;5054736;28;20367;-71
2022/01/31 01:08:10;;;;;;;12.25;3.00;;;15.30;44.10;14.40;100812.00;;;;5058148;28;20036;-71
2022/01/31 01:10:56;;;;;;;9.25;2.85;;;15.30;43.90;14.40;100800.00;;;;5050948;28;20085;-70
2022/01/31 01:13:42;;;;;;;11.60;3.05;;;15.30;43.90;14.40;100787.00;;;;5058339;28;20070;-70
2022/01/31 01:16:28;;;;;;;11.13;3.45;;;15.30;44.00;14.40;100781.00;;;;5063402;28;20052;-70
2022/01/31 01:19:14;;;;;;;8.23;2.38;;;15.30;44.00;14.40;100763.00;;;;5053489;28;20044;-70
2022/01/31 01:22:01;;;;;;;8.70;2.92;;;15.30;43.90;14.40;100742.00;;;;5061266;28;20035;-70
2022/01/31 01:24:48;;;;;;;11.02;2.75;;;15.30;43.70;14.40;100721.00;;;;5046217;28;20048;-70
2022/01/31 01:27:35;;;;;;;11.93;3.45;;;15.30;43.80;14.40;100706.00;;;;5046723;28;20135;-70
2022/01/31 01:30:21;;;;;;;8.43;2.70;;;15.30;43.60;14.40;100695.00;;;;5045426;28;20495;-70
2022/01/31 01:33:11;;;;;;;8.07;2.30;;;15.30;43.50;14.40;100671.00;;;;5055634;28;20040;-70
2022/01/31 01:35:57;;;;;;;10.23;2.42;;;15.30;43.50;14.30;100668.00;;;;5062355;28;20047;-70
2022/01/31 01:38:44;;;;;;;7.88;2.58;;;15.20;43.60;14.30;100651.00;;;;5055182;28;20106;-70
2022/01/31 01:41:30;;;;;;;8.00;2.60;;;15.20;43.50;14.30;100640.00;;;;5056361;28;20122;-70
2022/01/31 01:44:16;;;;;;;9.05;2.22;;;15.20;43.40;14.30;100633.00;;;;5062835;28;20029;-70
2022/01/31 01:47:02;;;;;;;10.85;2.53;;;15.20;43.60;14.30;100612.00;;;;5054155;28;20041;-70
2022/01/31 01:49:48;;;;;;;10.20;2.40;;;15.20;43.40;14.30;100601.00;;;;5046758;28;20074;-70
2022/01/31 01:52:34;;;;;;;8.10;2.53;;;15.20;43.40;14.30;100579.00;;;;5059251;28;20041;-70
2022/01/31 01:55:21;;;;;;;8.43;2.58;;;15.10;43.30;14.20;100580.00;;;;5048464;28;20071;-70
2022/01/31 01:58:14;;;;;;;10.10;2.60;;;15.20;43.50;14.20;100561.00;;;;5056801;28;20035;-70
2022/01/31 02:01:02;;;;;;;10.05;2.45;;;15.10;43.50;14.20;100552.00;;;;5058432;28;20032;-70
2022/01/31 02:03:48;;;;;;;8.23;2.40;;;15.10;43.40;14.20;100543.00;;;;5063811;28;20033;-70
2022/01/31 02:06:34;;;;;;;7.80;2.60;;;15.00;43.40;14.20;100541.00;;;;5047392;28;20040;-70
2022/01/31 02:09:22;;;;;;;8.75;2.60;;;15.10;43.40;14.20;100530.00;;;;5042954;28;20040;-70
2022/01/31 02:12:08;;;;;;;11.02;2.67;;;15.00;43.40;14.20;100525.00;;;;5050100;28;20272;-70
2022/01/31 02:14:58;;;;;;;8.20;2.55;;;15.00;43.50;14.20;100508.00;;;;5059679;28;20055;-70
2022/01/31 02:17:44;;;;;;;11.75;2.83;;;15.10;43.60;14.20;100508.00;;;;5064916;28;20099;-70
2022/01/31 02:20:30;;;;;;;9.98;2.55;;;15.00;43.70;14.20;100494.00;;;;5063662;28;20103;-70
2022/01/31 02:23:17;;;;;;;7.75;2.53;;;15.00;43.80;14.10;100481.00;;;;5047197;28;20409;-70
2022/01/31 02:26:05;;;;;;;11.85;2.70;;;15.00;43.90;14.10;100477.00;;;;5061107;28;20210;-70
2022/01/31 02:28:51;;;;;;;7.13;2.45;;;15.00;44.10;14.10;100463.00;;;;5051425;28;20037;-70
2022/01/31 02:31:42;;;;;;;7.53;2.25;;;14.90;44.00;14.10;100453.00;;;;5046518;28;20101;-70
2022/01/31 02:34:28;;;;;;;8.85;2.80;;;14.90;44.20;14.10;100457.00;;;;5065361;28;20051;-70
2022/01/31 02:37:14;;;;;;;9.40;2.15;;;14.90;44.30;14.10;100438.00;;;;5044227;28;20075;-70
2022/01/31 02:40:00;;;;;;;5.20;2.17;;;14.90;44.40;14.10;100416.00;;;;5060538;28;20040;-70
2022/01/31 02:42:46;;;;;;;5.80;2.08;;;14.90;44.50;14.10;100406.00;;;;5067558;28;20048;-70
2022/01/31 02:45:33;;;;;;;5.78;1.88;;;14.80;44.60;14.00;100406.00;;;;5061246;28;20029;-70
2022/01/31 02:48:22;;;;;;;4.65;1.90;;;14.90;44.70;14.00;100389.00;;;;5046186;28;20048;-70
2022/01/31 02:51:10;;;;;;;7.97;2.53;;;14.90;44.80;14.00;100384.00;;;;5062264;28;20118;-71
2022/01/31 02:53:56;;;;;;;;;;;14.80;44.90;14.00;100371.00;;;;5062353;28;20044;-70
2022/01/31 02:56:42;;;;;;;5.88;1.67;;;14.80;44.80;14.00;100358.00;;;;5063738;28;19921;-70
2022/01/31 02:59:28;;;;;;;8.57;2.30;;;14.90;44.90;14.00;100348.00;;;;5057745;28;20441;-70
2022/01/31 03:02:14;;;;;;;9.25;2.45;;;14.90;45.00;14.00;100343.00;;;;5069307;28;20039;-70
2022/01/31 03:05:00;;;;;;;8.65;2.00;;;14.80;45.00;14.00;100349.00;;;;5059691;28;20041;-70
2022/01/31 03:07:46;;;;;;;5.13;1.98;;;14.80;45.10;14.00;100332.00;;;;5066370;28;20454;-70
2022/01/31 03:10:32;;;;;;;8.23;1.70;;;14.80;45.10;14.00;100321.00;;;;5060829;28;20041;-70
2022/01/31 03:13:19;;;;;;;7.20;1.75;;;14.80;45.20;14.00;100304.00;;;;5050161;28;20043;-70
2022/01/31 03:16:05;;;;;;;5.57;1.90;;;14.80;45.00;14.00;100301.00;;;;5067299;28;20497;-70
2022/01/31 03:18:51;;;;;;;5.93;1.75;;;14.80;45.10;14.00;100292.00;;;;5056454;28;20476;-70
2022/01/31 03:21:38;;;;;;;8.18;2.15;;;14.80;45.20;14.00;100270.00;;;;5047817;28;20041;-70
2022/01/31 03:24:24;;;;;;;4.78;1.83;;;14.90;45.20;14.00;100264.00;;;;5059381;28;20449;-70
2022/01/31 03:27:10;;;;;;;3.53;1.40;;;14.80;45.20;14.00;100254.00;;;;5068183;28;20037;-70
2022/01/31 03:29:56;;;;;;;5.70;1.75;;;14.80;45.20;14.00;100245.00;;;;5046175;28;20048;-70
2022/01/31 03:32:42;;;;;;;3.58;1.63;;;14.80;45.30;14.00;100242.00;;;;5064792;28;20052;-70
2022/01/31 03:35:28;;;;;;;4.05;1.33;;;14.80;45.10;14.00;100231.00;;;;5042054;28;20048;-70
2022/01/31 03:38:14;;;;;;;2.75;1.38;;;14.80;45.10;14.00;100228.00;;;;5061066;28;20478;-70
2022/01/31 03:41:00;;;;;;;3.28;1.55;;;14.80;45.00;14.00;100210.00;;;;5036429;28;20035;-70
2022/01/31 03:43:46;;;;;;;5.28;1.33;;;14.80;45.10;14.00;100202.00;;;;5048719;28;20115;-70
2022/01/31 03:46:34;;;;;;;3.05;1.20;;;14.80;45.00;14.00;100191.00;;;;5049710;28;20037;-70
2022/01/31 03:49:20;;;;;;;;;;;14.80;45.00;14.00;100187.00;;;;5056814;28;20041;-70
2022/01/31 03:52:06;;;;;;;2.58;1.30;;;14.80;45.10;14.00;100184.00;;;;5059499;28;19916;-70
2022/01/31 03:54:55;;;;;;;3.33;1.20;;;14.80;45.00;14.00;100173.00;;;;5061775;28;20249;-70
2022/01/31 03:57:41;;;;;;;3.15;1.08;;;14.80;45.00;14.00;100170.00;;;;5065545;28;20103;-70
2022/01/31 04:00:27;;;;;;;2.55;1.50;;;14.80;45.10;14.00;100154.00;;;;5045138;28;20068;-70
2022/01/31 04:03:13;;;;;;;2.65;1.02;;;14.80;45.10;14.00;100147.00;;;;5062980;28;20044;-70
2022/01/31 04:05:59;;;;;;;2.55;1.17;;;14.80;45.20;14.00;100142.00;;;;5047349;28;20033;-71
2022/01/31 04:08:46;;;;;;;1.67;0.82;;;14.80;45.10;14.00;100147.00;;;;5064473;28;20581;-70
2022/01/31 04:11:32;;;;;;;2.75;1.00;;;14.80;45.10;14.10;100121.00;;;;5067766;28;20036;-70
2022/01/31 04:14:18;;;;;;;1.83;1.02;;;14.80;45.10;14.10;100122.00;;;;5057504;28;20067;-70
2022/01/31 04:17:08;;;;;;;2.72;1.10;;;14.80;45.20;14.10;100113.00;;;;5064072;28;20402;-70
2022/01/31 04:19:54;;;;;;;2.17;1.00;;;14.80;45.30;14.10;100109.00;;;;5063100;28;20044;-70
2022/01/31 04:22:48;;;;;;;1.95;1.13;;;14.90;45.30;14.10;100107.00;;;;5065780;28;20040;-70
2022/01/31 04:28:40;;;;;;;1.40;1.00;;;14.90;45.50;14.10;100100.00;;;;5047294;28;20083;-70
2022/01/31 04:31:38;;;;;;;1.75;0.80;;;14.90;45.50;14.10;100069.00;;;;5040773;28;20041;-70
2022/01/31 04:34:24;;;;;;;2.33;0.88;;;14.90;45.60;14.10;100068.00;;;;5058725;28;20274;-70
2022/01/31 04:37:10;;;;;;;1.10;0.80;;;14.90;45.50;14.10;100057.00;;;;5058143;28;20037;-70
2022/01/31 04:39:56;;;;;;;3.75;1.00;;;15.00;45.60;14.10;100054.00;;;;5045608;28;20033;-70
2022/01/31 04:42:44;;;;;;;1.67;1.00;;;15.00;45.50;14.20;100051.00;;;;5051337;28;20040;-70
2022/01/31 04:45:30;;;;;;;2.95;0.88;;;15.00;45.50;14.20;100044.00;;;;5057058;28;20037;-70
2022/01/31 04:48:17;;;;;;;1.80;0.88;;;15.00;45.50;14.20;100044.00;;;;5044389;28;20478;-70
2022/01/31 04:51:03;;;;;;;1.63;1.00;;;15.00;45.50;14.20;100047.00;;;;5055395;28;20048;-70
2022/01/31 04:53:49;;;;;;;1.80;1.00;;;15.00;45.60;14.20;100052.00;;;;5062738;28;20316;-70
2022/01/31 04:56:36;;;;;;;2.35;0.88;;;15.00;45.60;14.20;100041.00;;;;5050914;28;20052;-70
2022/01/31 04:59:22;;;;;;;2.17;0.70;;;15.00;45.70;14.20;100045.00;;;;5044819;28;20033;-70
2022/01/31 05:02:09;;;;;;;1.00;0.70;;;15.00;45.80;14.20;100043.00;;;;5062148;28;20028;-70
2022/01/31 05:04:55;;;;;;;2.90;0.88;;;15.10;45.90;14.20;100028.00;;;;5055094;28;20493;-70
2022/01/31 05:07:41;;;;;;;3.38;1.02;;;15.00;45.90;14.20;100028.00;;;;5061593;28;20118;-70
2022/01/31 05:10:27;;;;;;;2.22;0.90;;;15.20;46.10;14.30;100024.00;;;;5062388;28;20409;-70
2022/01/31 05:13:13;;;;;;;2.53;1.23;;;15.10;46.10;14.30;100020.00;;;;5058246;28;20114;-70
2022/01/31 05:15:59;;;;;;;3.92;0.75;;;15.10;46.20;14.30;100009.00;;;;5050649;28;20040;-70
2022/01/31 05:18:45;;;;;;;1.63;1.10;;;15.10;46.30;14.30;100007.00;;;;5048488;28;20036;-70
2022/01/31 05:21:32;;;;;;;2.38;0.80;;;15.20;46.30;14.30;99999.00;;;;5056493;28;20135;-70
2022/01/31 05:24:18;;;;;;;3.70;1.20;;;15.10;46.40;14.30;100005.00;;;;5056047;28;20037;-70
2022/01/31 05:27:04;;;;;;;1.80;0.70;;;15.20;46.30;14.30;99990.00;;;;5059207;28;20044;-70
2022/01/31 05:29:50;;;;;;;2.42;1.10;;;15.20;46.40;14.30;99981.00;;;;5059101;28;20474;-70
2022/01/31 05:32:36;;;;;;;2.72;1.00;;;15.20;46.40;14.30;99986.00;;;;5040843;28;20090;-71
2022/01/31 05:35:22;;;;;;;2.15;0.77;;;15.10;46.40;14.30;99976.00;;;;5059788;28;20037;-70
2022/01/31 05:38:08;;;;;;;1.98;1.02;;;15.20;46.40;14.30;99977.00;;;;5040404;28;20075;-70
2022/01/31 05:40:54;;;;;;;2.58;1.10;;;15.20;46.40;14.30;99969.00;;;;5063676;28;20037;-70
2022/01/31 05:43:40;;;;;;;3.88;1.05;;;15.20;46.40;14.30;99969.00;;;;5045455;28;20033;-70
2022/01/31 05:46:26;;;;;;;2.65;0.90;;;15.20;46.40;14.30;99966.00;;;;5041129;28;20037;-70
2022/01/31 05:49:12;;;;;;;1.30;0.80;;;15.10;46.50;14.30;99971.00;;;;5055402;28;20083;-70
2022/01/31 05:52:05;;;;;;;3.95;0.93;;;15.20;46.60;14.30;99970.00;;;;5054486;28;20036;-70
2022/01/31 05:54:51;;;;;;;2.95;0.90;;;15.10;46.60;14.30;99971.00;;;;5060059;28;20049;-70
2022/01/31 05:57:37;;;;;;;2.13;0.73;;;15.20;46.70;14.30;99963.00;;;;5048731;28;20513;-70
2022/01/31 06:00:23;;;;;;;3.10;0.98;;;15.20;47.50;14.30;99967.00;;;;5054110;28;20045;-70
2022/01/31 06:03:09;;;;;;;2.10;0.90;;;15.20;46.80;14.30;99964.00;;;;5056785;28;20040;-70
2022/01/31 06:05:55;;;;;;;1.92;0.90;;;15.20;46.90;14.30;99960.00;;;;5060496;28;20469;-71
2022/01/31 06:08:41;;;;;;;3.53;0.80;;;15.20;46.90;14.30;99958.00;;;;5055957;28;20099;-70
2022/01/31 06:11:27;;;;;;;2.67;1.08;;;15.20;46.90;14.30;99947.00;;;;5061830;28;20068;-70
2022/01/31 06:14:13;;;;;;;3.78;0.93;;;15.20;47.00;14.30;99959.00;;;;5054479;28;20116;-70
2022/01/31 06:16:59;;;;;;;2.88;0.80;;;15.20;47.00;14.30;99956.00;;;;5059410;28;20505;-70
2022/01/31 06:19:45;;;;;;;2.95;1.00;;;15.20;47.00;14.30;99950.00;;;;5055991;28;20037;-70
2022/01/31 06:22:31;;;;;;;1.95;0.80;;;15.20;47.00;14.30;99942.00;;;;5058577;28;20360;-70
2022/01/31 06:25:18;;;;;;;3.55;1.10;;;15.20;47.00;14.30;99930.00;;;;5059557;28;20024;-70
2022/01/31 06:28:05;;;;;;;3.50;1.13;;;15.20;46.90;14.30;99931.00;;;;5060860;28;20440;-70
2022/01/31 06:30:51;;;;;;;2.80;1.10;;;15.20;47.00;14.40;99921.00;;;;5059263;28;20402;-70
2022/01/31 06:33:37;;;;;;;5.63;1.58;;;15.30;47.00;14.40;99920.00;;;;5056810;28;20837;-70
2022/01/31 06:36:23;;;;;;;4.55;1.20;;;15.20;46.90;14.40;99915.00;;;;5058424;28;20483;-70
2022/01/31 06:39:09;;;;;;;4.70;1.58;;;15.30;47.00;14.40;99924.00;;;;5056138;28;20025;-70
2022/01/31 06:41:55;;;;;;;6.88;1.52;;;15.30;47.00;14.40;99933.00;;;;5065458;28;20036;-70
2022/01/31 06:44:41;;;;;;;2.85;1.20;;;15.30;46.90;14.40;99929.00;;;;5060909;28;20033;-70
2022/01/31 06:47:28;;;;;;;3.47;1.13;;;15.30;46.90;14.40;99932.00;;;;5052320;28;20055;-70
2022/01/31 06:50:14;;;;;;;4.45;1.50;;;15.30;46.90;14.30;99938.00;;;;5057336;28;20041;-70
2022/01/31 06:53:01;;;;;;;3.85;0.98;;;15.30;46.90;14.30;99936.00;;;;5068187;28;20379;-70
2022/01/31 06:55:47;;;;;;;4.78;1.05;;;15.30;47.00;14.30;99940.00;;;;5060937;28;20045;-70
2022/01/31 06:58:34;;;;;;;2.58;0.70;;;15.20;47.00;14.30;99931.00;;;;5057401;28;20040;-70
2022/01/31 07:01:24;;;;;;;3.47;0.88;;;15.20;46.80;14.30;99939.00;;;;5059888;28;20036;-70
2022/01/31 07:04:11;;;;;;;3.25;1.02;;;15.20;46.90;14.30;99926.00;;;;5057490;28;20036;-70
2022/01/31 07:06:58;;;;;;;4.10;0.95;;;15.20;47.00;14.30;99930.00;;;;5068509;28;20045;-70
2022/01/31 07:09:44;;;;;;;2.97;1.38;;;15.20;47.20;14.30;99914.00;;;;5059082;28;20041;-70
2022/01/31 07:12:33;;;;;;;1.67;0.65;;;15.20;47.20;14.30;99918.00;;;;5062952;28;20048;-71
2022/01/31 07:15:19;;;;;;;5.28;0.90;;;15.20;47.30;14.30;99921.00;;;;5063445;28;20048;-70
2022/01/31 07:18:05;;;;;;;3.25;1.30;;;15.20;47.40;14.30;99919.00;;;;5046140;28;20155;-70
2022/01/31 07:20:53;;;;;;;2.70;1.00;;;15.20;47.50;14.30;99914.00;;;;5049656;28;20044;-70
2022/01/31 07:24:02;;;;;;;2.83;1.00;;;15.20;47.50;14.30;99901.00;;;;5059549;28;20106;-71
2022/01/31 07:26:45;;;;;;;2.72;1.13;;;15.20;47.50;14.30;99898.00;;;;5064187;28;20127;-70
2022/01/31 07:29:31;;;;;;;1.75;0.73;;;15.20;47.50;14.30;99881.00;;;;5048608;28;20043;-70
2022/01/31 07:32:19;;;;;;;2.33;1.00;;;15.20;47.50;14.30;99885.00;;;;5047416;28;20044;-70
2022/01/31 07:35:05;;;;;;;1.87;0.90;;;15.20;47.50;14.30;99882.00;;;;5063747;28;20046;-70
2022/01/31 07:37:51;;;;;;;1.98;0.70;;;15.30;47.60;14.30;99879.00;;;;5060467;28;20680;-70
2022/01/31 07:40:38;;;;;;;2.90;0.98;;;15.20;47.40;14.40;99874.00;;;;5057447;28;20041;-70
2022/01/31 07:43:24;;;;;;;1.63;0.77;;;15.20;47.50;14.40;99875.00;;;;5060785;28;20489;-71
2022/01/31 07:46:13;;;;;;;1.85;1.00;;;15.30;47.50;14.40;99878.00;;;;5062388;28;20466;-70
2022/01/31 07:49:00;;;;;;;2.35;0.90;;;15.30;47.60;14.40;99878.00;;;;5049924;28;20032;-70
2022/01/31 07:51:46;;;;;;;1.98;0.80;;;15.30;47.40;14.40;99868.00;;;;5059047;28;20040;-70
2022/01/31 07:54:32;;;;;;;3.08;0.90;;;15.30;47.40;14.40;99870.00;;;;5058410;28;20040;-70
2022/01/31 07:57:19;;;;;;;3.05;1.00;;;15.30;47.40;14.40;99864.00;;;;5041559;28;20469;-70
2022/01/31 08:00:06;;;;;;;3.47;0.70;;;15.30;47.50;14.40;99875.00;;;;5055884;28;20059;-70
2022/01/31 08:02:53;;;;;;;2.53;0.77;;;15.30;47.50;14.40;99873.00;;;;5062570;28;20355;-70
2022/01/31 08:05:39;;;;;;;1.40;0.53;;;15.30;48.20;14.40;99866.00;;;;5062342;28;20048;-70
2022/01/31 08:08:28;;;;;;;2.00;0.70;;;15.30;47.50;14.40;99867.00;;;;5060034;28;20632;-70
2022/01/31 08:11:15;;;;;;;3.22;0.95;;;15.30;47.60;14.40;99861.00;;;;5050703;28;20037;-70
2022/01/31 08:14:05;;;;;;;2.55;0.70;;;15.30;47.50;14.40;99864.00;;;;5057944;28;20059;-70
2022/01/31 08:16:52;;;;;;;3.97;0.75;;;15.30;47.40;14.40;99867.00;;;;5054570;28;20049;-70
2022/01/31 08:19:38;;;;;;;2.85;0.60;;;15.30;47.40;14.40;99863.00;;;;5063164;28;20097;-70
2022/01/31 08:22:24;;;;;;;1.60;0.50;;;15.30;47.40;14.40;99857.00;;;;5057707;28;20051;-70
2022/01/31 08:25:14;;;;;;;1.98;0.70;;;15.30;47.50;14.40;99851.00;;;;5047798;28;20044;-70
2022/01/31 08:28:05;;;;;;;2.17;0.65;;;15.30;47.70;14.40;99856.00;;;;5056794;28;20035;-70
2022/01/31 08:30:58;;;;;;;1.88;0.70;;;15.30;47.80;14.40;99857.00;;;;5062767;28;20040;-70
2022/01/31 08:36:46;;;;;;;2.33;0.55;;;15.20;47.70;14.40;99858.00;;;;5051675;28;20078;-70
2022/01/31 08:39:32;;;;;;;0.85;0.40;;;15.30;47.70;14.40;99853.00;;;;5060032;28;20041;-70
2022/01/31 08:42:18;;;;;;;1.40;0.43;;;15.20;47.70;14.40;99855.00;;;;5057971;28;20044;-70
2022/01/31 08:45:06;;;;;;;4.07;1.10;;;15.30;47.80;14.30;99851.00;;;;5060988;28;20040;-70
2022/01/31 08:47:52;;;;;;;5.82;0.75;;;15.30;47.80;14.40;99837.00;;;;5056771;28;20044;-70
2022/01/31 08:50:38;;;;;;;1.60;0.52;;;15.30;47.90;14.40;99845.00;;;;5059250;28;20040;-70
2022/01/31 08:53:24;;;;;;;0.75;0.50;;;15.30;48.00;14.40;99850.00;;;;5049984;28;20053;-71
2022/01/31 08:56:12;;;;;;;2.35;0.60;;;15.30;48.00;14.40;99852.00;;;;5046397;28;20481;-70
2022/01/31 08:58:58;;;;;;;3.10;0.45;;;15.30;47.90;14.40;99851.00;;;;5062843;28;20040;-71
2022/01/31 09:01:52;;;;;;;1.35;0.40;;;15.30;47.80;14.40;99828.00;;;;5044871;28;20072;-71
2022/01/31 09:04:47;;;;;;;1.00;0.40;;;15.30;47.70;14.40;99843.00;;;;5061142;28;20045;-70
2022/01/31 09:07:34;;;;;;;0.32;0.25;;;15.30;47.80;14.40;99832.00;;;;5062091;28;20470;-70
2022/01/31 09:10:20;;;;;;;1.98;0.82;;;15.30;47.80;14.40;99834.00;;;;5059896;28;20090;-71
2022/01/31 09:13:06;;;;;;;2.03;0.32;;;15.30;47.90;14.40;99831.00;;;;5045748;28;20048;-71
2022/01/31 09:15:52;;;;;;;1.38;0.52;;;15.30;47.90;14.40;99825.00;;;;5057215;28;20037;-71
2022/01/31 09:18:38;;;;;;;0.73;0.38;;;15.30;47.90;14.40;99818.00;;;;5059566;28;20068;-71
2022/01/31 09:21:24;;;;;;;2.88;0.50;;;15.30;48.00;14.40;99818.00;;;;5066917;28;20029;-71
2022/01/31 09:24:10;;;;;;;2.38;0.40;;;15.30;48.00;14.40;99818.00;;;;5056668;28;20032;-71
2022/01/31 09:26:57;;;;;;;1.48;0.47;;;15.30;48.00;14.40;99811.00;;;;5060166;28;20036;-71
2022/01/31 09:29:43;;;;;;;1.58;0.45;;;15.30;48.10;14.40;99817.00;;;;5060513;28;20040;-71
2022/01/31 09:32:29;;;;;;;1.38;0.30;;;15.30;48.10;14.40;99829.00;;;;5059257;28;20029;-71
2022/01/31 09:35:15;;;;;;;1.73;0.40;;;15.30;48.80;14.40;99821.00;;;;5058743;28;20036;-71
2022/01/31 09:38:02;;;;;;;1.02;0.30;;;15.30;48.10;14.40;99823.00;;;;5042778;28;20197;-71
2022/01/31 09:40:50;;;;;;;0.55;0.30;;;15.30;48.20;14.40;99822.00;;;;5065109;28;20371;-70
2022/01/31 09:49:11;;;;;;;1.33;0.38;;;15.40;48.20;14.40;99822.00;;;;5056969;28;20275;-70
2022/01/31 09:51:57;;;;;;;0.68;0.30;;;15.40;48.30;14.40;99833.00;;;;5059675;28;20037;-70
2022/01/31 09:54:48;;;;;;;0.50;0.20;;;15.30;48.30;14.40;99828.00;;;;5061817;28;20044;-70
2022/01/31 09:57:34;;;;;;;1.17;0.40;;;15.40;48.30;14.40;99836.00;;;;5048293;28;20067;-70
2022/01/31 10:00:32;;;;;;;2.30;0.50;;;15.40;48.30;14.40;99835.00;;;;5017823;28;20029;-71
2022/01/31 10:03:18;;;;;;;0.60;0.30;;;15.40;48.50;14.50;99844.00;;;;5030356;28;20033;-70
2022/01/31 10:06:04;;;;;;;2.00;0.50;;;15.40;48.40;14.50;99854.00;;;;5064971;28;20493;-70
2022/01/31 10:09:02;;;;;;;2.42;0.40;;;15.40;48.50;14.50;99846.00;;;;5054603;28;20041;-70
2022/01/31 10:12:03;;;;;;;1.50;0.40;;;15.40;48.60;14.50;99852.00;;;;5058167;28;20410;-70
2022/01/31 10:18:00;;;;;;;0.85;0.32;;;15.40;48.60;14.50;99879.00;;;;5049638;28;20042;-70
2022/01/31 10:20:46;;;;;;;0.82;0.40;;;15.40;48.70;14.50;99885.00;;;;5065538;28;20123;-70
2022/01/31 10:23:40;;;;;;;1.10;0.47;;;15.40;48.70;14.50;99889.00;;;;5063072;28;20037;-70
2022/01/31 10:26:31;;;;;;;2.13;0.43;;;15.40;48.90;14.50;99886.00;;;;5050058;28;20409;-70
2022/01/31 10:29:19;;;;;;;1.77;0.70;;;15.40;48.90;14.60;99896.00;;;;5049226;28;20048;-70
2022/01/31 10:32:10;;;;;;;;;;;15.50;48.90;14.60;99901.00;;;;5047084;28;20043;-71
2022/01/31 10:34:58;;;;;;;1.60;0.30;;;15.50;48.60;14.60;99901.00;;;;5045575;28;19935;-71
2022/01/31 10:37:45;;;;;;;1.02;0.43;;;15.50;48.80;14.60;99912.00;;;;5064640;28;20049;-71
2022/01/31 10:44:23;;;;;;;2.63;0.57;;;15.50;48.90;14.60;99915.00;;;;5050876;28;20128;-70
2022/01/31 10:53:06;;;;;;;2.25;0.60;;;15.60;49.10;14.60;99926.00;;;;5062613;28;20072;-70
2022/01/31 10:55:56;;;;;;;1.05;0.38;;;15.60;49.10;14.70;99943.00;;;;5048163;28;20532;-71
2022/01/31 10:59:04;;;;;;;2.55;0.70;;;15.60;49.10;14.60;99951.00;;;;5048214;28;20037;-70
2022/01/31 11:01:52;;;;;;;2.38;0.50;;;15.60;49.30;14.70;99936.00;;;;5054541;28;20044;-70
2022/01/31 11:04:39;;;;;;;;;;;15.60;49.20;14.70;99943.00;;;;5062299;28;20040;-70
2022/01/31 11:07:26;;;;;;;2.78;0.57;;;15.60;48.90;14.70;99962.00;;;;5064487;28;19999;-70
2022/01/31 11:10:17;;;;;;;1.50;0.40;;;15.60;49.10;14.70;99972.00;;;;5061739;28;20036;-71
2022/01/31 11:13:03;;;;;;;1.83;0.50;;;15.70;49.10;14.70;99990.00;;;;5061289;28;20037;-70
2022/01/31 11:15:51;;;;;;;1.30;0.60;;;15.70;49.20;14.70;99992.00;;;;5051945;28;20521;-70
2022/01/31 11:18:37;;;;;;;2.33;0.50;;;15.60;49.10;14.70;99983.00;;;;5037624;28;20037;-70
2022/01/31 11:21:28;;;;;;;2.80;0.47;;;15.60;49.10;14.70;99986.00;;;;5038209;28;20041;-70
2022/01/31 11:24:23;;;;;;;1.85;0.43;;;15.70;49.20;14.70;100002.00;;;;5048737;28;20120;-70
2022/01/31 11:27:14;;;;;;;1.40;0.38;;;15.70;49.30;14.70;100006.00;;;;5050264;28;20040;-71
2022/01/31 11:30:00;;;;;;;2.53;0.47;;;15.70;49.30;14.70;100008.00;;;;5053118;28;20117;-71
2022/01/31 11:32:47;;;;;;;1.75;0.50;;;15.70;49.20;14.70;100009.00;;;;5051473;28;20041;-70
2022/01/31 11:35:33;;;;;;;1.25;0.50;;;15.70;49.20;14.70;100028.00;;;;5061689;28;20330;-70
2022/01/31 11:38:19;;;;;;;0.98;0.28;;;15.70;49.20;14.70;100021.00;;;;5050585;28;20057;-70
2022/01/31 11:41:05;;;;;;;3.22;0.50;;;15.70;49.20;14.70;100028.00;;;;5056625;28;20033;-70
2022/01/31 11:43:59;;;;;;;1.88;0.30;;;15.70;49.20;14.70;100041.00;;;;5054806;28;20041;-70
2022/01/31 11:46:45;;;;;;;2.22;0.25;;;15.70;49.30;14.80;100046.00;;;;5041789;28;20048;-70
2022/01/31 11:49:59;;;;;;;3.97;0.50;;;15.60;49.10;14.80;100051.00;;;;5049984;28;20475;-70
2022/01/31 11:53:27;;;;;;;1.05;0.30;;;15.70;49.20;14.80;100045.00;;;;5065718;28;20055;-70
2022/01/31 11:56:22;;;;;;;0.88;0.30;;;15.70;49.10;14.70;100053.00;;;;5061622;28;20047;-70
2022/01/31 11:59:08;;;;;;;1.52;0.32;;;15.70;49.20;14.80;100051.00;;;;5050879;28;20043;-70
2022/01/31 12:01:57;;;;;;;1.30;0.47;;;15.70;49.10;14.80;100066.00;;;;5048908;28;20082;-70
2022/01/31 12:04:44;;;;;;;2.25;0.82;;;15.70;49.10;14.80;100068.00;;;;5046284;28;20048;-70
2022/01/31 12:07:41;;;;;;;3.67;0.60;;;15.70;49.10;14.80;100062.00;;;;5051007;28;20044;-70
2022/01/31 12:10:34;;;;;;;1.92;0.50;;;15.70;49.10;14.80;100076.00;;;;5062274;28;20090;-70
2022/01/31 12:13:36;;;;;;;3.53;0.50;;;15.80;49.20;14.80;100078.00;;;;5048666;28;20124;-70
2022/01/31 12:16:41;;;;;;;1.08;0.20;;;15.80;49.20;14.80;100084.00;;;;5053347;28;20044;-71
2022/01/31 12:22:46;;;;;;;3.30;0.70;;;15.80;49.20;14.80;100092.00;;;;5045674;28;20033;-70
2022/01/31 12:25:32;;;;;;;1.23;0.40;;;15.80;49.20;14.80;100097.00;;;;5059888;28;20045;-70
2022/01/31 12:28:38;;;;;;;2.22;0.50;;;15.80;49.20;14.80;100092.00;;;;5064777;28;20043;-70
2022/01/31 12:31:29;;;;;;;1.98;0.50;;;15.80;49.20;14.80;100107.00;;;;5059498;28;20111;-70
2022/01/31 12:34:20;;;;;;;1.42;0.60;;;15.70;49.10;14.80;100097.00;;;;5062191;28;20068;-70
2022/01/31 12:37:22;;;;;;;2.38;0.40;;;15.80;49.20;14.80;100102.00;;;;5057835;28;20101;-70
2022/01/31 12:40:27;;;;;;;1.90;0.28;;;15.70;49.20;14.80;100118.00;;;;5059548;28;20620;-70
2022/01/31 12:43:35;;;;;;;1.52;0.47;;;15.70;49.40;14.80;100118.00;;;;5051535;28;20477;-70
2022/01/31 12:46:22;;;;;;;3.08;0.40;;;15.80;49.30;14.80;100125.00;;;;5063635;28;20028;-70
2022/01/31 12:49:10;;;;;;;2.17;0.45;;;15.80;49.20;14.80;100131.00;;;;5059308;28;20033;-70